sensor_id;sensor_type;location;lat;lon;timestamp;P1;durP1;ratioP1;P2;durP2;ratioP2
47337;SDS011;33069;51.970;5.892;2023-07-31T00:00:02;15.13;;;13.77;;
47337;SDS011;33069;51.970;5.892;2023-07-31T00:02:48;15.35;;;13.82;;
47337;SDS011;33069;51.970;5.892;2023-07-31T00:05:34;12.00;;;11.02;;
47337;SDS011;33069;51.970;5.892;2023-07-31T00:08:20;14.07;;;12.98;;
47337;SDS011;33069;51.970;5.892;2023-07-31T00:11:06;15.57;;;14.18;;
47337;SDS011;33069;51.970;5.892;2023-07-31T00:13:52;17.60;;;15.85;;
47337;SDS011;33069;51.970;5.892;2023-07-31T00:16:39;13.70;;;12.40;;
47337;SDS011;33069;51.970;5.892;2023-07-31T00:19:25;19.10;;;17.35;;
47337;SDS011;33069;51.970;5.892;2023-07-31T00:22:10;23.92;;;21.63;;
47337;SDS011;33069;51.970;5.892;2023-07-31T00:24:57;22.50;;;20.17;;
47337;SDS011;33069;51.970;5.892;2023-07-31T00:27:43;15.13;;;13.82;;
47337;SDS011;33069;51.970;5.892;2023-07-31T00:30:29;13.75;;;12.70;;
47337;SDS011;33069;51.970;5.892;2023-07-31T00:33:15;17.40;;;15.75;;
47337;SDS011;33069;51.970;5.892;2023-07-31T00:36:01;13.73;;;12.73;;
47337;SDS011;33069;51.970;5.892;2023-07-31T00:38:47;15.77;;;14.20;;
47337;SDS011;33069;51.970;5.892;2023-07-31T00:41:34;18.10;;;16.20;;
47337;SDS011;33069;51.970;5.892;2023-07-31T00:44:20;22.75;;;18.08;;
47337;SDS011;33069;51.970;5.892;2023-07-31T00:47:06;43.38;;;39.55;;
47337;SDS011;33069;51.970;5.892;2023-07-31T00:49:52;34.25;;;20.02;;
47337;SDS011;33069;51.970;5.892;2023-07-31T00:52:38;38.13;;;20.17;;
47337;SDS011;33069;51.970;5.892;2023-07-31T00:55:24;38.60;;;21.50;;
47337;SDS011;33069;51.970;5.892;2023-07-31T00:58:10;42.03;;;23.25;;
47337;SDS011;33069;51.970;5.892;2023-07-31T01:00:56;50.28;;;25.38;;
47337;SDS011;33069;51.970;5.892;2023-07-31T01:03:42;55.58;;;27.58;;
47337;SDS011;33069;51.970;5.892;2023-07-31T01:09:31;71.15;;;30.77;;
47337;SDS011;33069;51.970;5.892;2023-07-31T01:12:53;69.50;;;30.60;;
47337;SDS011;33069;51.970;5.892;2023-07-31T01:15:43;71.10;;;30.00;;
47337;SDS011;33069;51.970;5.892;2023-07-31T01:18:28;56.65;;;28.88;;
47337;SDS011;33069;51.970;5.892;2023-07-31T01:27:29;55.42;;;28.05;;
47337;SDS011;33069;51.970;5.892;2023-07-31T01:30:21;55.38;;;33.03;;
47337;SDS011;33069;51.970;5.892;2023-07-31T01:33:11;53.08;;;27.40;;
47337;SDS011;33069;51.970;5.892;2023-07-31T01:35:59;58.42;;;28.58;;
47337;SDS011;33069;51.970;5.892;2023-07-31T01:38:45;60.05;;;29.50;;
47337;SDS011;33069;51.970;5.892;2023-07-31T01:41:31;61.25;;;28.17;;
47337;SDS011;33069;51.970;5.892;2023-07-31T01:44:17;51.75;;;25.73;;
47337;SDS011;33069;51.970;5.892;2023-07-31T01:47:03;58.13;;;41.17;;
47337;SDS011;33069;51.970;5.892;2023-07-31T01:49:49;54.25;;;26.73;;
47337;SDS011;33069;51.970;5.892;2023-07-31T01:52:35;60.65;;;26.35;;
47337;SDS011;33069;51.970;5.892;2023-07-31T01:55:21;49.65;;;25.23;;
47337;SDS011;33069;51.970;5.892;2023-07-31T01:58:07;49.30;;;23.88;;
47337;SDS011;33069;51.970;5.892;2023-07-31T02:00:53;53.55;;;25.42;;
47337;SDS011;33069;51.970;5.892;2023-07-31T02:03:39;48.97;;;36.03;;
47337;SDS011;33069;51.970;5.892;2023-07-31T02:06:25;47.53;;;34.35;;
47337;SDS011;33069;51.970;5.892;2023-07-31T02:09:11;40.40;;;22.52;;
47337;SDS011;33069;51.970;5.892;2023-07-31T02:11:57;46.28;;;33.00;;
47337;SDS011;33069;51.970;5.892;2023-07-31T02:14:43;40.63;;;22.65;;
47337;SDS011;33069;51.970;5.892;2023-07-31T02:17:29;51.35;;;23.90;;
47337;SDS011;33069;51.970;5.892;2023-07-31T02:20:15;50.78;;;31.90;;
47337;SDS011;33069;51.970;5.892;2023-07-31T02:23:01;41.95;;;27.75;;
47337;SDS011;33069;51.970;5.892;2023-07-31T02:25:47;57.40;;;40.60;;
47337;SDS011;33069;51.970;5.892;2023-07-31T02:28:33;49.17;;;27.63;;
47337;SDS011;33069;51.970;5.892;2023-07-31T02:31:19;52.20;;;27.15;;
47337;SDS011;33069;51.970;5.892;2023-07-31T02:34:05;56.38;;;25.20;;
47337;SDS011;33069;51.970;5.892;2023-07-31T02:36:51;44.92;;;23.83;;
47337;SDS011;33069;51.970;5.892;2023-07-31T02:39:37;50.08;;;23.25;;
47337;SDS011;33069;51.970;5.892;2023-07-31T02:42:23;43.45;;;23.90;;
47337;SDS011;33069;51.970;5.892;2023-07-31T02:45:09;48.30;;;22.70;;
47337;SDS011;33069;51.970;5.892;2023-07-31T02:47:56;50.22;;;21.95;;
47337;SDS011;33069;51.970;5.892;2023-07-31T02:50:42;48.88;;;22.55;;
47337;SDS011;33069;51.970;5.892;2023-07-31T02:53:27;59.88;;;21.73;;
47337;SDS011;33069;51.970;5.892;2023-07-31T02:56:13;56.90;;;26.23;;
47337;SDS011;33069;51.970;5.892;2023-07-31T02:58:59;34.85;;;20.45;;
47337;SDS011;33069;51.970;5.892;2023-07-31T03:01:45;39.95;;;22.48;;
47337;SDS011;33069;51.970;5.892;2023-07-31T03:04:31;43.47;;;21.50;;
47337;SDS011;33069;51.970;5.892;2023-07-31T03:07:17;49.60;;;23.05;;
47337;SDS011;33069;51.970;5.892;2023-07-31T03:10:03;47.58;;;22.92;;
47337;SDS011;33069;51.970;5.892;2023-07-31T03:12:50;40.50;;;21.90;;
47337;SDS011;33069;51.970;5.892;2023-07-31T03:15:36;49.75;;;22.25;;
47337;SDS011;33069;51.970;5.892;2023-07-31T03:18:22;50.15;;;22.80;;
47337;SDS011;33069;51.970;5.892;2023-07-31T03:21:08;47.88;;;23.52;;
47337;SDS011;33069;51.970;5.892;2023-07-31T03:23:54;48.65;;;21.10;;
47337;SDS011;33069;51.970;5.892;2023-07-31T03:26:40;39.30;;;22.38;;
47337;SDS011;33069;51.970;5.892;2023-07-31T03:29:27;39.80;;;21.50;;
47337;SDS011;33069;51.970;5.892;2023-07-31T03:32:12;37.25;;;20.17;;
47337;SDS011;33069;51.970;5.892;2023-07-31T03:35:13;39.35;;;23.20;;
47337;SDS011;33069;51.970;5.892;2023-07-31T03:44:56;40.78;;;20.70;;
47337;SDS011;33069;51.970;5.892;2023-07-31T03:47:42;35.88;;;19.85;;
47337;SDS011;33069;51.970;5.892;2023-07-31T03:50:27;35.30;;;19.65;;
47337;SDS011;33069;51.970;5.892;2023-07-31T03:53:13;35.80;;;19.60;;
47337;SDS011;33069;51.970;5.892;2023-07-31T03:56:00;39.72;;;20.30;;
47337;SDS011;33069;51.970;5.892;2023-07-31T03:58:46;35.63;;;19.33;;
47337;SDS011;33069;51.970;5.892;2023-07-31T04:01:31;36.00;;;18.90;;
47337;SDS011;33069;51.970;5.892;2023-07-31T04:04:17;35.88;;;20.08;;
47337;SDS011;33069;51.970;5.892;2023-07-31T04:07:03;38.17;;;20.15;;
47337;SDS011;33069;51.970;5.892;2023-07-31T04:09:49;30.50;;;15.45;;
47337;SDS011;33069;51.970;5.892;2023-07-31T04:12:35;33.80;;;16.05;;
47337;SDS011;33069;51.970;5.892;2023-07-31T04:15:21;29.20;;;15.23;;
47337;SDS011;33069;51.970;5.892;2023-07-31T04:18:07;37.38;;;15.30;;
47337;SDS011;33069;51.970;5.892;2023-07-31T04:20:53;30.63;;;15.00;;
47337;SDS011;33069;51.970;5.892;2023-07-31T04:23:39;34.05;;;15.43;;
47337;SDS011;33069;51.970;5.892;2023-07-31T04:26:25;34.03;;;15.45;;
47337;SDS011;33069;51.970;5.892;2023-07-31T04:29:11;33.40;;;14.98;;
47337;SDS011;33069;51.970;5.892;2023-07-31T04:31:57;33.53;;;15.52;;
47337;SDS011;33069;51.970;5.892;2023-07-31T04:34:43;37.08;;;15.00;;
47337;SDS011;33069;51.970;5.892;2023-07-31T04:37:29;30.08;;;15.82;;
47337;SDS011;33069;51.970;5.892;2023-07-31T04:40:15;33.75;;;16.00;;
47337;SDS011;33069;51.970;5.892;2023-07-31T04:43:01;27.65;;;15.55;;
47337;SDS011;33069;51.970;5.892;2023-07-31T04:45:47;40.17;;;16.45;;
47337;SDS011;33069;51.970;5.892;2023-07-31T04:48:35;27.88;;;16.38;;
47337;SDS011;33069;51.970;5.892;2023-07-31T04:51:21;31.42;;;16.35;;
47337;SDS011;33069;51.970;5.892;2023-07-31T04:54:08;28.73;;;16.35;;
47337;SDS011;33069;51.970;5.892;2023-07-31T04:56:54;32.50;;;15.93;;
47337;SDS011;33069;51.970;5.892;2023-07-31T04:59:40;30.40;;;15.35;;
47337;SDS011;33069;51.970;5.892;2023-07-31T05:02:26;31.45;;;16.67;;
47337;SDS011;33069;51.970;5.892;2023-07-31T05:05:12;34.25;;;16.08;;
47337;SDS011;33069;51.970;5.892;2023-07-31T05:07:58;33.92;;;15.55;;
47337;SDS011;33069;51.970;5.892;2023-07-31T05:10:44;31.05;;;15.63;;
47337;SDS011;33069;51.970;5.892;2023-07-31T05:13:30;37.90;;;15.80;;
47337;SDS011;33069;51.970;5.892;2023-07-31T05:16:16;24.45;;;16.23;;
47337;SDS011;33069;51.970;5.892;2023-07-31T05:19:01;31.83;;;15.05;;
47337;SDS011;33069;51.970;5.892;2023-07-31T05:21:48;30.50;;;16.15;;
47337;SDS011;33069;51.970;5.892;2023-07-31T05:24:34;26.23;;;15.00;;
47337;SDS011;33069;51.970;5.892;2023-07-31T05:27:20;30.23;;;15.23;;
47337;SDS011;33069;51.970;5.892;2023-07-31T05:30:06;29.65;;;15.85;;
47337;SDS011;33069;51.970;5.892;2023-07-31T05:32:52;24.77;;;15.50;;
47337;SDS011;33069;51.970;5.892;2023-07-31T05:35:38;28.15;;;15.98;;
47337;SDS011;33069;51.970;5.892;2023-07-31T05:38:24;31.13;;;15.65;;
47337;SDS011;33069;51.970;5.892;2023-07-31T05:41:11;27.38;;;16.48;;
47337;SDS011;33069;51.970;5.892;2023-07-31T05:43:57;30.38;;;16.73;;
47337;SDS011;33069;51.970;5.892;2023-07-31T05:46:43;31.55;;;18.23;;
47337;SDS011;33069;51.970;5.892;2023-07-31T05:49:29;37.72;;;20.02;;
47337;SDS011;33069;51.970;5.892;2023-07-31T05:52:15;46.08;;;18.88;;
47337;SDS011;33069;51.970;5.892;2023-07-31T05:55:01;44.50;;;19.23;;
47337;SDS011;33069;51.970;5.892;2023-07-31T05:57:48;28.40;;;18.45;;
47337;SDS011;33069;51.970;5.892;2023-07-31T06:00:34;43.60;;;20.85;;
47337;SDS011;33069;51.970;5.892;2023-07-31T06:03:20;33.95;;;20.48;;
47337;SDS011;33069;51.970;5.892;2023-07-31T06:06:06;35.97;;;20.25;;
47337;SDS011;33069;51.970;5.892;2023-07-31T06:08:52;46.88;;;22.65;;
47337;SDS011;33069;51.970;5.892;2023-07-31T06:11:38;40.28;;;20.75;;
47337;SDS011;33069;51.970;5.892;2023-07-31T06:14:24;33.33;;;19.00;;
47337;SDS011;33069;51.970;5.892;2023-07-31T06:17:10;35.47;;;20.02;;
47337;SDS011;33069;51.970;5.892;2023-07-31T06:19:56;33.83;;;20.42;;
47337;SDS011;33069;51.970;5.892;2023-07-31T06:22:42;35.08;;;19.83;;
47337;SDS011;33069;51.970;5.892;2023-07-31T06:25:28;40.25;;;22.13;;
47337;SDS011;33069;51.970;5.892;2023-07-31T06:28:14;36.15;;;21.10;;
47337;SDS011;33069;51.970;5.892;2023-07-31T06:31:00;35.17;;;20.80;;
47337;SDS011;33069;51.970;5.892;2023-07-31T06:33:46;31.40;;;19.40;;
47337;SDS011;33069;51.970;5.892;2023-07-31T06:36:32;39.40;;;25.38;;
47337;SDS011;33069;51.970;5.892;2023-07-31T06:39:18;43.90;;;21.30;;
47337;SDS011;33069;51.970;5.892;2023-07-31T06:42:04;30.85;;;19.75;;
47337;SDS011;33069;51.970;5.892;2023-07-31T06:44:50;28.85;;;18.65;;
47337;SDS011;33069;51.970;5.892;2023-07-31T06:47:36;36.00;;;19.40;;
47337;SDS011;33069;51.970;5.892;2023-07-31T06:50:22;35.85;;;19.02;;
47337;SDS011;33069;51.970;5.892;2023-07-31T06:53:08;30.25;;;19.05;;
47337;SDS011;33069;51.970;5.892;2023-07-31T06:55:54;18.50;;;15.30;;
47337;SDS011;33069;51.970;5.892;2023-07-31T06:58:40;26.02;;;16.35;;
47337;SDS011;33069;51.970;5.892;2023-07-31T07:01:26;24.08;;;19.08;;
47337;SDS011;33069;51.970;5.892;2023-07-31T07:04:14;20.00;;;15.27;;
47337;SDS011;33069;51.970;5.892;2023-07-31T07:07:00;20.40;;;14.75;;
47337;SDS011;33069;51.970;5.892;2023-07-31T07:09:46;25.60;;;22.95;;
47337;SDS011;33069;51.970;5.892;2023-07-31T07:12:32;15.07;;;13.35;;
47337;SDS011;33069;51.970;5.892;2023-07-31T07:15:18;15.98;;;13.82;;
47337;SDS011;33069;51.970;5.892;2023-07-31T07:18:04;13.93;;;12.52;;
47337;SDS011;33069;51.970;5.892;2023-07-31T07:20:51;15.20;;;13.65;;
47337;SDS011;33069;51.970;5.892;2023-07-31T07:23:38;25.73;;;23.70;;
47337;SDS011;33069;51.970;5.892;2023-07-31T07:26:24;12.98;;;11.70;;
47337;SDS011;33069;51.970;5.892;2023-07-31T07:29:09;13.30;;;12.05;;
47337;SDS011;33069;51.970;5.892;2023-07-31T07:31:56;12.38;;;11.27;;
47337;SDS011;33069;51.970;5.892;2023-07-31T07:34:42;11.80;;;10.80;;
47337;SDS011;33069;51.970;5.892;2023-07-31T07:37:28;13.60;;;12.25;;
47337;SDS011;33069;51.970;5.892;2023-07-31T07:40:15;11.32;;;10.43;;
47337;SDS011;33069;51.970;5.892;2023-07-31T07:43:01;12.75;;;11.65;;
47337;SDS011;33069;51.970;5.892;2023-07-31T07:45:47;10.48;;;9.68;;
47337;SDS011;33069;51.970;5.892;2023-07-31T07:48:33;9.40;;;8.70;;
47337;SDS011;33069;51.970;5.892;2023-07-31T07:51:19;15.02;;;13.93;;
47337;SDS011;33069;51.970;5.892;2023-07-31T07:54:05;11.35;;;10.23;;
47337;SDS011;33069;51.970;5.892;2023-07-31T07:56:51;10.55;;;9.05;;
47337;SDS011;33069;51.970;5.892;2023-07-31T07:59:37;11.32;;;10.52;;
47337;SDS011;33069;51.970;5.892;2023-07-31T08:02:23;10.05;;;9.32;;
47337;SDS011;33069;51.970;5.892;2023-07-31T08:05:09;10.18;;;9.27;;
47337;SDS011;33069;51.970;5.892;2023-07-31T08:07:55;10.10;;;9.10;;
47337;SDS011;33069;51.970;5.892;2023-07-31T08:10:41;9.60;;;8.88;;
47337;SDS011;33069;51.970;5.892;2023-07-31T08:13:27;15.07;;;13.73;;
47337;SDS011;33069;51.970;5.892;2023-07-31T08:16:14;10.60;;;9.70;;
47337;SDS011;33069;51.970;5.892;2023-07-31T08:19:00;10.93;;;10.07;;
47337;SDS011;33069;51.970;5.892;2023-07-31T08:21:46;12.85;;;11.18;;
47337;SDS011;33069;51.970;5.892;2023-07-31T08:24:32;13.40;;;12.30;;
47337;SDS011;33069;51.970;5.892;2023-07-31T08:27:18;12.73;;;11.70;;
47337;SDS011;33069;51.970;5.892;2023-07-31T08:30:04;13.52;;;10.77;;
47337;SDS011;33069;51.970;5.892;2023-07-31T08:32:51;22.38;;;20.80;;
47337;SDS011;33069;51.970;5.892;2023-07-31T08:35:36;26.00;;;24.27;;
47337;SDS011;33069;51.970;5.892;2023-07-31T08:38:22;16.25;;;14.75;;
47337;SDS011;33069;51.970;5.892;2023-07-31T08:41:10;12.50;;;11.40;;
47337;SDS011;33069;51.970;5.892;2023-07-31T08:43:58;24.50;;;22.70;;
47337;SDS011;33069;51.970;5.892;2023-07-31T08:46:45;12.82;;;11.65;;
47337;SDS011;33069;51.970;5.892;2023-07-31T08:49:33;15.68;;;14.07;;
47337;SDS011;33069;51.970;5.892;2023-07-31T08:52:20;16.48;;;15.18;;
47337;SDS011;33069;51.970;5.892;2023-07-31T08:55:06;14.95;;;13.63;;
47337;SDS011;33069;51.970;5.892;2023-07-31T08:57:53;20.15;;;15.65;;
47337;SDS011;33069;51.970;5.892;2023-07-31T09:00:41;13.43;;;12.23;;
47337;SDS011;33069;51.970;5.892;2023-07-31T09:03:29;14.82;;;13.52;;
47337;SDS011;33069;51.970;5.892;2023-07-31T09:06:19;20.10;;;18.30;;
47337;SDS011;33069;51.970;5.892;2023-07-31T09:09:08;15.80;;;14.23;;
47337;SDS011;33069;51.970;5.892;2023-07-31T09:11:55;15.30;;;14.02;;
47337;SDS011;33069;51.970;5.892;2023-07-31T09:14:43;18.15;;;16.73;;
47337;SDS011;33069;51.970;5.892;2023-07-31T09:17:32;17.55;;;16.05;;
47337;SDS011;33069;51.970;5.892;2023-07-31T09:20:21;19.15;;;17.45;;
47337;SDS011;33069;51.970;5.892;2023-07-31T09:25:54;37.92;;;35.15;;
47337;SDS011;33069;51.970;5.892;2023-07-31T09:28:40;18.42;;;16.70;;
47337;SDS011;33069;51.970;5.892;2023-07-31T09:31:59;17.83;;;16.48;;
47337;SDS011;33069;51.970;5.892;2023-07-31T09:34:39;18.10;;;16.50;;
47337;SDS011;33069;51.970;5.892;2023-07-31T09:37:25;38.03;;;35.45;;
47337;SDS011;33069;51.970;5.892;2023-07-31T09:40:24;19.92;;;18.02;;
47337;SDS011;33069;51.970;5.892;2023-07-31T09:43:20;46.50;;;42.83;;
47337;SDS011;33069;51.970;5.892;2023-07-31T09:46:12;21.13;;;17.67;;
47337;SDS011;33069;51.970;5.892;2023-07-31T09:49:09;24.40;;;22.27;;
47337;SDS011;33069;51.970;5.892;2023-07-31T09:51:56;39.67;;;36.05;;
47337;SDS011;33069;51.970;5.892;2023-07-31T09:54:41;33.35;;;30.90;;
47337;SDS011;33069;51.970;5.892;2023-07-31T09:57:27;21.58;;;19.33;;
47337;SDS011;33069;51.970;5.892;2023-07-31T10:00:15;20.40;;;18.55;;
47337;SDS011;33069;51.970;5.892;2023-07-31T10:03:06;25.20;;;22.88;;
47337;SDS011;33069;51.970;5.892;2023-07-31T10:05:54;19.77;;;17.52;;
47337;SDS011;33069;51.970;5.892;2023-07-31T10:08:42;20.05;;;17.35;;
47337;SDS011;33069;51.970;5.892;2023-07-31T10:11:34;20.90;;;18.77;;
47337;SDS011;33069;51.970;5.892;2023-07-31T10:14:42;33.60;;;30.42;;
47337;SDS011;33069;51.970;5.892;2023-07-31T10:17:30;20.50;;;18.38;;
47337;SDS011;33069;51.970;5.892;2023-07-31T10:20:17;27.85;;;25.35;;
47337;SDS011;33069;51.970;5.892;2023-07-31T10:23:03;24.63;;;17.77;;
47337;SDS011;33069;51.970;5.892;2023-07-31T10:25:49;20.88;;;18.75;;
47337;SDS011;33069;51.970;5.892;2023-07-31T10:28:36;39.88;;;36.42;;
47337;SDS011;33069;51.970;5.892;2023-07-31T10:31:24;21.17;;;18.83;;
47337;SDS011;33069;51.970;5.892;2023-07-31T10:34:10;26.98;;;24.30;;
47337;SDS011;33069;51.970;5.892;2023-07-31T10:40:13;21.17;;;19.17;;
47337;SDS011;33069;51.970;5.892;2023-07-31T10:43:02;25.55;;;20.25;;
47337;SDS011;33069;51.970;5.892;2023-07-31T10:45:48;23.13;;;20.80;;
47337;SDS011;33069;51.970;5.892;2023-07-31T10:48:34;28.98;;;25.80;;
47337;SDS011;33069;51.970;5.892;2023-07-31T10:51:22;25.33;;;22.70;;
47337;SDS011;33069;51.970;5.892;2023-07-31T10:54:15;18.52;;;15.60;;
47337;SDS011;33069;51.970;5.892;2023-07-31T10:57:05;18.25;;;15.68;;
47337;SDS011;33069;51.970;5.892;2023-07-31T11:00:21;19.03;;;17.10;;
47337;SDS011;33069;51.970;5.892;2023-07-31T11:03:14;19.55;;;17.40;;
47337;SDS011;33069;51.970;5.892;2023-07-31T11:06:06;20.83;;;18.85;;
47337;SDS011;33069;51.970;5.892;2023-07-31T11:08:52;22.60;;;20.10;;
47337;SDS011;33069;51.970;5.892;2023-07-31T11:11:38;22.38;;;20.23;;
47337;SDS011;33069;51.970;5.892;2023-07-31T11:14:24;18.33;;;16.55;;
47337;SDS011;33069;51.970;5.892;2023-07-31T11:17:10;20.25;;;18.42;;
47337;SDS011;33069;51.970;5.892;2023-07-31T11:19:56;24.17;;;20.60;;
47337;SDS011;33069;51.970;5.892;2023-07-31T11:22:42;22.98;;;20.70;;
47337;SDS011;33069;51.970;5.892;2023-07-31T11:25:29;33.30;;;30.50;;
47337;SDS011;33069;51.970;5.892;2023-07-31T11:28:17;22.63;;;20.33;;
47337;SDS011;33069;51.970;5.892;2023-07-31T11:31:04;27.80;;;25.10;;
47337;SDS011;33069;51.970;5.892;2023-07-31T11:33:50;22.40;;;19.85;;
47337;SDS011;33069;51.970;5.892;2023-07-31T11:36:36;22.10;;;20.00;;
47337;SDS011;33069;51.970;5.892;2023-07-31T11:39:22;19.40;;;17.55;;
47337;SDS011;33069;51.970;5.892;2023-07-31T11:42:08;18.92;;;17.05;;
47337;SDS011;33069;51.970;5.892;2023-07-31T11:44:54;19.95;;;17.98;;
47337;SDS011;33069;51.970;5.892;2023-07-31T11:47:40;19.05;;;17.35;;
47337;SDS011;33069;51.970;5.892;2023-07-31T11:50:26;17.95;;;16.13;;
47337;SDS011;33069;51.970;5.892;2023-07-31T11:53:12;17.40;;;15.75;;
47337;SDS011;33069;51.970;5.892;2023-07-31T11:55:59;26.80;;;24.63;;
47337;SDS011;33069;51.970;5.892;2023-07-31T11:58:47;18.45;;;16.70;;
47337;SDS011;33069;51.970;5.892;2023-07-31T12:01:34;20.95;;;18.83;;
47337;SDS011;33069;51.970;5.892;2023-07-31T12:04:21;18.90;;;17.17;;
47337;SDS011;33069;51.970;5.892;2023-07-31T12:07:08;17.75;;;16.05;;
47337;SDS011;33069;51.970;5.892;2023-07-31T12:09:54;17.88;;;16.13;;
47337;SDS011;33069;51.970;5.892;2023-07-31T12:12:41;16.75;;;15.05;;
47337;SDS011;33069;51.970;5.892;2023-07-31T12:15:48;17.02;;;15.57;;
47337;SDS011;33069;51.970;5.892;2023-07-31T12:18:34;18.33;;;16.75;;
47337;SDS011;33069;51.970;5.892;2023-07-31T12:21:21;17.52;;;16.13;;
47337;SDS011;33069;51.970;5.892;2023-07-31T12:24:07;17.67;;;15.93;;
47337;SDS011;33069;51.970;5.892;2023-07-31T12:26:53;17.85;;;16.05;;
47337;SDS011;33069;51.970;5.892;2023-07-31T12:29:43;18.33;;;16.48;;
47337;SDS011;33069;51.970;5.892;2023-07-31T12:32:30;19.42;;;17.40;;
47337;SDS011;33069;51.970;5.892;2023-07-31T12:35:16;20.52;;;18.45;;
47337;SDS011;33069;51.970;5.892;2023-07-31T12:38:02;20.38;;;18.30;;
47337;SDS011;33069;51.970;5.892;2023-07-31T12:40:48;34.00;;;31.20;;
47337;SDS011;33069;51.970;5.892;2023-07-31T12:43:37;24.65;;;20.00;;
47337;SDS011;33069;51.970;5.892;2023-07-31T12:46:24;22.60;;;20.33;;
47337;SDS011;33069;51.970;5.892;2023-07-31T12:49:10;27.35;;;24.83;;
47337;SDS011;33069;51.970;5.892;2023-07-31T12:51:56;24.55;;;20.10;;
47337;SDS011;33069;51.970;5.892;2023-07-31T12:54:42;24.48;;;22.00;;
47337;SDS011;33069;51.970;5.892;2023-07-31T12:57:28;21.35;;;19.25;;
47337;SDS011;33069;51.970;5.892;2023-07-31T13:00:14;28.00;;;22.17;;
47337;SDS011;33069;51.970;5.892;2023-07-31T13:03:00;21.27;;;18.90;;
47337;SDS011;33069;51.970;5.892;2023-07-31T13:05:46;22.85;;;18.90;;
47337;SDS011;33069;51.970;5.892;2023-07-31T13:08:32;20.83;;;18.88;;
47337;SDS011;33069;51.970;5.892;2023-07-31T13:11:18;19.67;;;17.67;;
47337;SDS011;33069;51.970;5.892;2023-07-31T13:14:04;18.98;;;17.10;;
47337;SDS011;33069;51.970;5.892;2023-07-31T13:16:50;18.65;;;16.75;;
47337;SDS011;33069;51.970;5.892;2023-07-31T13:19:36;21.08;;;18.77;;
47337;SDS011;33069;51.970;5.892;2023-07-31T13:22:23;19.65;;;17.67;;
47337;SDS011;33069;51.970;5.892;2023-07-31T13:25:09;24.23;;;21.77;;
47337;SDS011;33069;51.970;5.892;2023-07-31T13:27:55;20.05;;;18.05;;
47337;SDS011;33069;51.970;5.892;2023-07-31T13:30:41;17.65;;;16.08;;
47337;SDS011;33069;51.970;5.892;2023-07-31T13:33:26;16.30;;;14.80;;
47337;SDS011;33069;51.970;5.892;2023-07-31T13:36:12;21.45;;;19.52;;
47337;SDS011;33069;51.970;5.892;2023-07-31T13:38:59;17.30;;;15.70;;
47337;SDS011;33069;51.970;5.892;2023-07-31T13:41:45;16.92;;;15.32;;
47337;SDS011;33069;51.970;5.892;2023-07-31T13:44:31;16.67;;;15.18;;
47337;SDS011;33069;51.970;5.892;2023-07-31T13:47:18;17.58;;;15.98;;
47337;SDS011;33069;51.970;5.892;2023-07-31T13:50:04;16.02;;;14.50;;
47337;SDS011;33069;51.970;5.892;2023-07-31T13:52:50;17.23;;;15.57;;
47337;SDS011;33069;51.970;5.892;2023-07-31T13:55:36;18.77;;;16.45;;
47337;SDS011;33069;51.970;5.892;2023-07-31T13:58:22;17.98;;;16.38;;
47337;SDS011;33069;51.970;5.892;2023-07-31T14:01:08;17.88;;;14.70;;
47337;SDS011;33069;51.970;5.892;2023-07-31T14:03:54;17.50;;;15.68;;
47337;SDS011;33069;51.970;5.892;2023-07-31T14:06:40;18.50;;;16.23;;
47337;SDS011;33069;51.970;5.892;2023-07-31T14:09:26;18.42;;;16.63;;
47337;SDS011;33069;51.970;5.892;2023-07-31T14:12:13;17.95;;;16.15;;
47337;SDS011;33069;51.970;5.892;2023-07-31T14:14:59;19.55;;;16.65;;
47337;SDS011;33069;51.970;5.892;2023-07-31T14:17:45;20.42;;;18.42;;
47337;SDS011;33069;51.970;5.892;2023-07-31T14:20:31;20.75;;;17.13;;
47337;SDS011;33069;51.970;5.892;2023-07-31T14:23:17;19.67;;;17.50;;
47337;SDS011;33069;51.970;5.892;2023-07-31T14:26:05;20.98;;;17.27;;
47337;SDS011;33069;51.970;5.892;2023-07-31T14:28:51;34.08;;;30.90;;
47337;SDS011;33069;51.970;5.892;2023-07-31T14:31:37;17.45;;;15.75;;
47337;SDS011;33069;51.970;5.892;2023-07-31T14:34:23;19.88;;;17.05;;
47337;SDS011;33069;51.970;5.892;2023-07-31T14:37:08;23.85;;;16.67;;
47337;SDS011;33069;51.970;5.892;2023-07-31T14:39:54;21.73;;;16.92;;
47337;SDS011;33069;51.970;5.892;2023-07-31T14:42:41;21.25;;;17.23;;
47337;SDS011;33069;51.970;5.892;2023-07-31T14:45:27;21.58;;;16.55;;
47337;SDS011;33069;51.970;5.892;2023-07-31T14:48:13;23.60;;;17.52;;
47337;SDS011;33069;51.970;5.892;2023-07-31T14:50:59;24.13;;;21.55;;
47337;SDS011;33069;51.970;5.892;2023-07-31T14:53:46;19.75;;;15.20;;
47337;SDS011;33069;51.970;5.892;2023-07-31T14:56:32;20.52;;;18.10;;
47337;SDS011;33069;51.970;5.892;2023-07-31T14:59:18;21.48;;;19.13;;
47337;SDS011;33069;51.970;5.892;2023-07-31T15:02:04;18.55;;;16.33;;
47337;SDS011;33069;51.970;5.892;2023-07-31T15:04:51;22.65;;;17.48;;
47337;SDS011;33069;51.970;5.892;2023-07-31T15:07:37;24.00;;;17.17;;
47337;SDS011;33069;51.970;5.892;2023-07-31T15:10:23;51.47;;;47.47;;
47337;SDS011;33069;51.970;5.892;2023-07-31T15:13:09;18.60;;;16.60;;
47337;SDS011;33069;51.970;5.892;2023-07-31T15:15:55;25.73;;;18.67;;
47337;SDS011;33069;51.970;5.892;2023-07-31T15:18:41;26.60;;;16.45;;
47337;SDS011;33069;51.970;5.892;2023-07-31T15:21:27;20.63;;;17.98;;
47337;SDS011;33069;51.970;5.892;2023-07-31T15:24:13;16.85;;;15.05;;
47337;SDS011;33069;51.970;5.892;2023-07-31T15:26:59;22.75;;;16.20;;
47337;SDS011;33069;51.970;5.892;2023-07-31T15:29:49;24.05;;;20.52;;
47337;SDS011;33069;51.970;5.892;2023-07-31T15:32:38;22.40;;;16.25;;
47337;SDS011;33069;51.970;5.892;2023-07-31T15:35:24;37.95;;;35.22;;
47337;SDS011;33069;51.970;5.892;2023-07-31T15:38:10;17.42;;;15.18;;
47337;SDS011;33069;51.970;5.892;2023-07-31T15:40:56;19.90;;;14.00;;
47337;SDS011;33069;51.970;5.892;2023-07-31T15:43:42;16.92;;;13.18;;
47337;SDS011;33069;51.970;5.892;2023-07-31T15:46:28;16.95;;;14.95;;
47337;SDS011;33069;51.970;5.892;2023-07-31T15:49:14;22.60;;;15.60;;
47337;SDS011;33069;51.970;5.892;2023-07-31T15:52:00;17.55;;;13.77;;
47337;SDS011;33069;51.970;5.892;2023-07-31T15:54:46;17.63;;;13.38;;
47337;SDS011;33069;51.970;5.892;2023-07-31T15:57:32;18.40;;;13.57;;
47337;SDS011;33069;51.970;5.892;2023-07-31T16:00:18;17.15;;;12.35;;
47337;SDS011;33069;51.970;5.892;2023-07-31T16:03:04;18.67;;;13.55;;
47337;SDS011;33069;51.970;5.892;2023-07-31T16:05:50;13.35;;;11.82;;
47337;SDS011;33069;51.970;5.892;2023-07-31T16:08:36;15.43;;;11.55;;
47337;SDS011;33069;51.970;5.892;2023-07-31T16:11:26;16.38;;;11.70;;
47337;SDS011;33069;51.970;5.892;2023-07-31T16:14:12;13.80;;;12.15;;
47337;SDS011;33069;51.970;5.892;2023-07-31T16:16:58;14.50;;;11.32;;
47337;SDS011;33069;51.970;5.892;2023-07-31T16:19:44;21.70;;;19.63;;
47337;SDS011;33069;51.970;5.892;2023-07-31T16:22:30;13.23;;;11.85;;
47337;SDS011;33069;51.970;5.892;2023-07-31T16:25:16;10.40;;;9.40;;
47337;SDS011;33069;51.970;5.892;2023-07-31T16:28:02;11.38;;;10.18;;
47337;SDS011;33069;51.970;5.892;2023-07-31T16:30:48;12.30;;;11.10;;
47337;SDS011;33069;51.970;5.892;2023-07-31T16:33:35;12.98;;;11.73;;
47337;SDS011;33069;51.970;5.892;2023-07-31T16:36:21;19.77;;;18.17;;